Time;durP1;ratioP1;P1;durP2;ratioP2;P2;SDS_P1;SDS_P2;PMS_P1;PMS_P2;Temp;Humidity;BMP_temperature;BMP_pressure;BME280_temperature;BME280_humidity;BME280_pressure;Samples;Min_cycle;Max_cycle;Signal;HPM_P1;HPM_P2
2022/01/18 00:01:27;;;;;;;63.90;11.25;;;6.80;99.90;;;;;;5076152;28;20032;-80
2022/01/18 00:03:53;;;;;;;49.92;10.70;;;6.80;99.90;;;;;;5075829;28;20051;-80
2022/01/18 00:06:18;;;;;;;70.30;10.73;;;6.80;99.90;;;;;;5069198;28;20501;-80
2022/01/18 00:08:44;;;;;;;56.78;11.25;;;6.80;99.90;;;;;;5080581;28;20041;-80
2022/01/18 00:11:10;;;;;;;55.88;10.55;;;6.80;99.90;;;;;;5073280;28;20055;-80
2022/01/18 00:13:43;;;;;;;61.10;10.73;;;6.90;99.90;;;;;;5080813;28;20027;-80
2022/01/18 00:16:24;;;;;;;47.70;9.43;;;6.90;99.90;;;;;;5081528;28;20028;-80
2022/01/18 00:18:52;;;;;;;40.63;8.65;;;7.00;99.90;;;;;;5081956;28;20079;-80
2022/01/18 00:21:35;;;;;;;39.85;8.48;;;7.00;99.90;;;;;;5068976;28;20032;-80
2022/01/18 00:24:00;;;;;;;42.20;8.43;;;7.00;99.90;;;;;;5080924;28;20121;-80
2022/01/18 00:26:30;;;;;;;33.22;8.55;;;7.10;99.90;;;;;;5083691;28;20040;-80
2022/01/18 00:29:01;;;;;;;46.97;10.52;;;7.10;99.90;;;;;;5059738;28;20067;-80
2022/01/18 00:31:39;;;;;;;54.70;11.10;;;7.00;99.90;;;;;;5076524;28;20085;-80
2022/01/18 00:34:11;;;;;;;55.67;10.80;;;7.10;99.90;;;;;;5071025;28;20439;-80
2022/01/18 00:36:40;;;;;;;53.40;10.77;;;7.00;99.90;;;;;;5073864;28;20060;-80
2022/01/18 00:39:11;;;;;;;50.92;10.95;;;7.00;99.90;;;;;;5073883;28;20115;-80
2022/01/18 00:41:38;;;;;;;64.15;11.07;;;7.00;99.90;;;;;;5056809;28;20119;-80
2022/01/18 00:44:05;;;;;;;69.45;11.27;;;7.00;99.90;;;;;;5069947;28;20032;-80
2022/01/18 00:46:31;;;;;;;58.63;10.82;;;7.00;99.90;;;;;;5072648;28;20044;-80
2022/01/18 00:49:01;;;;;;;70.70;11.13;;;7.00;99.90;;;;;;5082354;28;20032;-80
2022/01/18 00:51:37;;;;;;;53.22;10.27;;;6.90;99.90;;;;;;5087614;28;20536;-80
2022/01/18 00:54:04;;;;;;;60.17;11.00;;;6.90;99.90;;;;;;5088742;28;20031;-80
2022/01/18 00:56:31;;;;;;;59.45;9.52;;;7.00;99.90;;;;;;5087560;28;20715;-80
2022/01/18 00:58:58;;;;;;;62.28;10.25;;;7.00;99.90;;;;;;5084199;28;20055;-80
2022/01/18 01:01:28;;;;;;;60.72;10.90;;;7.00;99.90;;;;;;5070884;28;20763;-80
2022/01/18 01:03:58;;;;;;;64.85;11.85;;;7.00;99.90;;;;;;5086111;28;20381;-80
2022/01/18 01:06:24;;;;;;;64.85;10.43;;;7.00;99.90;;;;;;5073087;28;20058;-80
2022/01/18 01:08:51;;;;;;;68.97;11.27;;;7.00;99.90;;;;;;5067809;28;20040;-80
2022/01/18 01:11:18;;;;;;;70.20;11.63;;;7.00;99.90;;;;;;5055019;28;20409;-80
2022/01/18 01:13:47;;;;;;;53.72;11.00;;;7.00;99.90;;;;;;5086510;28;20032;-80
2022/01/18 01:45:27;;;;;;;55.22;12.95;;;7.20;99.90;;;;;;5051872;28;20469;-82
2022/01/18 01:47:54;;;;;;;50.30;11.45;;;7.20;99.90;;;;;;5076405;28;20067;-82
2022/01/18 01:50:24;;;;;;;48.00;11.13;;;7.20;99.90;;;;;;5050603;28;20039;-82
2022/01/18 01:52:53;;;;;;;79.07;15.90;;;7.30;99.90;;;;;;5079307;28;20032;-82
2022/01/18 01:55:20;;;;;;;82.88;16.52;;;7.20;99.90;;;;;;5081122;28;20059;-82
2022/01/18 01:57:46;;;;;;;72.97;15.00;;;7.30;99.90;;;;;;5060515;28;20473;-82
2022/01/18 02:00:16;;;;;;;83.05;17.23;;;7.30;99.90;;;;;;5054435;28;20078;-79
2022/01/18 02:02:42;;;;;;;68.40;15.15;;;7.20;99.90;;;;;;5072061;28;20123;-79
2022/01/18 02:05:08;;;;;;;87.63;17.40;;;7.20;99.90;;;;;;5072118;28;20115;-79
2022/01/18 02:07:34;;;;;;;77.05;15.18;;;7.20;99.90;;;;;;5082162;28;20492;-80
2022/01/18 02:10:00;;;;;;;81.95;16.02;;;7.20;99.90;;;;;;5070175;28;20051;-80
2022/01/18 02:12:26;;;;;;;68.18;15.70;;;7.20;99.90;;;;;;5079983;28;20020;-80
2022/01/18 02:14:59;;;;;;;58.67;13.80;;;7.20;99.90;;;;;;5078497;28;20036;-76
2022/01/18 02:22:57;;;;;;;68.50;16.42;;;7.20;99.90;;;;;;5087142;28;20038;-78
2022/01/18 02:25:25;;;;;;;64.30;14.80;;;7.10;99.90;;;;;;5085310;28;20410;-78
2022/01/18 02:27:51;;;;;;;67.25;15.40;;;7.10;99.90;;;;;;5071230;28;20049;-79
2022/01/18 02:30:17;;;;;;;85.00;16.15;;;7.10;99.90;;;;;;5074261;28;20046;-78
2022/01/18 02:32:42;;;;;;;74.35;16.88;;;7.10;99.90;;;;;;5073092;28;20127;-81
2022/01/18 02:35:08;;;;;;;61.38;14.40;;;7.10;99.90;;;;;;5089675;28;20066;-80
2022/01/18 02:37:34;;;;;;;91.05;18.83;;;7.00;99.90;;;;;;5086982;28;20086;-80
2022/01/18 02:40:00;;;;;;;64.35;14.95;;;7.10;99.90;;;;;;5055805;28;20036;-80
2022/01/18 02:42:31;;;;;;;60.00;15.32;;;7.10;99.90;;;;;;5077239;28;20115;-80
2022/01/18 02:44:57;;;;;;;71.15;17.15;;;7.10;99.90;;;;;;5078604;28;20065;-80
2022/01/18 02:47:23;;;;;;;93.35;17.15;;;7.10;99.90;;;;;;5088849;28;20032;-79
2022/01/18 02:49:50;;;;;;;76.30;16.70;;;7.10;99.90;;;;;;5079976;28;20028;-79
2022/01/18 02:52:16;;;;;;;61.08;13.43;;;7.10;99.90;;;;;;5091730;28;20031;-79
2022/01/18 02:54:43;;;;;;;70.70;14.68;;;7.10;99.90;;;;;;5091630;28;20042;-79
2022/01/18 02:57:15;;;;;;;71.20;15.13;;;7.20;99.90;;;;;;5091394;28;20035;-78
2022/01/18 02:59:56;;;;;;;76.00;16.30;;;7.20;99.90;;;;;;5059204;28;20028;-79
2022/01/18 03:05:10;;;;;;;83.05;16.45;;;7.20;99.90;;;;;;5072764;28;20035;-80
2022/01/18 03:07:36;;;;;;;61.67;14.93;;;7.20;99.90;;;;;;5070498;28;20443;-80
2022/01/18 03:10:04;;;;;;;68.47;16.52;;;7.20;99.90;;;;;;5070882;28;20051;-80
2022/01/18 03:12:30;;;;;;;58.92;16.45;;;7.30;99.90;;;;;;5052751;28;20032;-80
2022/01/18 03:14:55;;;;;;;74.57;17.92;;;7.30;99.90;;;;;;5083322;28;20024;-80
2022/01/18 03:17:21;;;;;;;71.40;17.60;;;7.20;99.90;;;;;;5080049;28;20086;-80
2022/01/18 03:19:46;;;;;;;80.63;16.60;;;7.30;99.90;;;;;;5068511;28;20048;-80
2022/01/18 03:22:12;;;;;;;63.20;15.35;;;7.30;99.90;;;;;;5071912;28;20052;-80
2022/01/18 03:29:54;;;;;;;64.70;14.95;;;7.30;99.90;;;;;;5070148;28;20048;-80
2022/01/18 03:32:20;;;;;;;45.90;13.25;;;7.30;99.90;;;;;;5049240;28;20485;-79
2022/01/18 03:34:45;;;;;;;65.72;14.57;;;7.20;99.90;;;;;;5082363;28;20073;-79
2022/01/18 03:37:11;;;;;;;62.03;14.65;;;7.30;99.90;;;;;;5072034;28;20032;-82
2022/01/18 03:39:36;;;;;;;66.55;13.90;;;7.20;99.90;;;;;;5085067;28;20036;-82
2022/01/18 03:42:33;;;;;;;58.92;14.57;;;7.20;99.90;;;;;;5088113;28;20078;-82
2022/01/18 03:44:51;;;;;;;62.23;16.27;;;7.30;99.90;;;;;;5088657;28;20036;-82
2022/01/18 03:47:19;;;;;;;74.70;17.25;;;7.20;99.90;;;;;;5080204;28;20298;-82
2022/01/18 03:49:45;;;;;;;72.87;17.03;;;7.20;99.90;;;;;;5052016;28;20412;-82
2022/01/18 03:52:10;;;;;;;62.33;14.65;;;7.30;99.90;;;;;;5070979;28;20032;-82
2022/01/18 03:54:42;;;;;;;81.82;19.63;;;7.20;99.90;;;;;;5061178;28;20036;-82
2022/01/18 03:57:09;;;;;;;77.63;18.27;;;7.20;99.90;;;;;;5077875;28;20036;-82
2022/01/18 03:59:35;;;;;;;70.93;17.90;;;7.20;99.90;;;;;;5066553;28;20032;-82
2022/01/18 04:02:00;;;;;;;75.90;19.02;;;7.20;99.90;;;;;;5087297;28;20531;-82
2022/01/18 04:04:26;;;;;;;89.78;20.30;;;7.20;99.90;;;;;;5087905;28;20063;-82
2022/01/18 04:06:52;;;;;;;58.78;15.23;;;7.20;99.90;;;;;;5063968;28;20037;-80
2022/01/18 04:09:19;;;;;;;68.82;18.40;;;7.20;99.90;;;;;;5069748;28;20063;-80
2022/01/18 04:11:44;;;;;;;64.93;19.40;;;7.20;99.90;;;;;;5085574;28;20028;-79
2022/01/18 04:14:10;;;;;;;81.13;20.73;;;7.20;99.90;;;;;;5074931;28;20528;-79
2022/01/18 04:16:44;;;;;;;71.25;17.25;;;7.20;99.90;;;;;;5069982;28;20056;-79
2022/01/18 04:25:48;;;;;;;110.15;22.48;;;7.20;99.90;;;;;;5059240;28;20031;-79
2022/01/18 04:27:41;;;;;;;70.82;19.80;;;7.20;99.90;;;;;;5059597;28;20090;-79
2022/01/18 04:30:08;;;;;;;79.10;21.95;;;7.20;99.90;;;;;;5069616;28;20024;-83
2022/01/18 04:32:33;;;;;;;71.05;19.10;;;7.20;99.90;;;;;;5086434;28;20028;-82
2022/01/18 04:34:59;;;;;;;79.28;21.42;;;7.20;99.90;;;;;;5080889;28;20151;-82
2022/01/18 04:37:25;;;;;;;85.07;22.55;;;7.10;99.90;;;;;;5065988;28;20068;-82
2022/01/18 04:39:51;;;;;;;79.88;22.58;;;7.10;99.90;;;;;;5081120;28;20032;-82
2022/01/18 04:42:32;;;;;;;90.05;22.17;;;7.20;99.90;;;;;;5073596;28;20029;-82
2022/01/18 04:50:26;;;;;;;118.30;30.52;;;7.10;99.90;;;;;;5072877;28;20777;-76
2022/01/18 04:52:51;;;;;;;109.57;27.95;;;7.10;99.90;;;;;;5079006;28;20036;-77
2022/01/18 04:55:18;;;;;;;106.60;28.65;;;7.20;99.90;;;;;;5092617;28;20032;-76
2022/01/18 04:57:53;;;;;;;102.78;25.25;;;7.10;99.90;;;;;;5081287;28;20369;-76
2022/01/18 05:00:20;;;;;;;88.97;23.92;;;7.10;99.90;;;;;;5056612;28;20040;-80
2022/01/18 05:02:49;;;;;;;91.65;25.17;;;7.00;99.90;;;;;;5076829;28;20426;-80
2022/01/18 05:05:24;;;;;;;97.87;25.27;;;7.10;99.90;;;;;;5078582;28;20044;-80
2022/01/18 05:07:55;;;;;;;85.15;24.05;;;7.10;99.90;;;;;;5070618;28;20032;-80
2022/01/18 05:10:23;;;;;;;91.78;25.70;;;7.10;99.90;;;;;;5074048;28;20016;-80
2022/01/18 05:12:52;;;;;;;116.88;31.60;;;7.10;99.90;;;;;;5071783;28;20032;-80
2022/01/18 05:23:19;;;;;;;96.00;28.65;;;7.10;99.90;;;;;;5092357;28;20549;-82
2022/01/18 05:25:46;;;;;;;99.15;28.27;;;7.10;99.90;;;;;;5071194;28;20036;-82
2022/01/18 05:28:13;;;;;;;75.57;23.45;;;7.10;99.90;;;;;;5070824;28;20120;-82
2022/01/18 05:30:38;;;;;;;64.57;23.35;;;7.10;99.90;;;;;;5088867;28;20541;-82
2022/01/18 05:33:04;;;;;;;88.70;25.02;;;7.10;99.90;;;;;;5092293;28;20036;-78
2022/01/18 05:35:30;;;;;;;106.43;31.42;;;7.00;99.90;;;;;;5083527;28;20032;-79
2022/01/18 05:37:56;;;;;;;171.25;42.70;;;7.00;99.90;;;;;;5060887;28;20066;-78
2022/01/18 05:40:23;;;;;;;129.32;39.13;;;7.00;99.90;;;;;;5072619;28;20024;-79
2022/01/18 05:42:48;;;;;;;141.82;39.78;;;7.00;99.90;;;;;;5079534;28;20491;-79
2022/01/18 05:45:14;;;;;;;106.72;33.95;;;7.00;99.90;;;;;;5093101;28;20039;-79
2022/01/18 05:47:41;;;;;;;127.13;41.28;;;6.90;99.90;;;;;;5074200;28;20032;-79
2022/01/18 05:50:08;;;;;;;177.35;49.92;;;6.90;99.90;;;;;;5091904;28;20544;-79
2022/01/18 05:52:34;;;;;;;122.25;42.10;;;6.90;99.90;;;;;;5072828;28;20140;-79
2022/01/18 05:55:00;;;;;;;119.80;44.88;;;6.90;99.90;;;;;;5075308;28;20166;-78
2022/01/18 05:57:26;;;;;;;116.50;41.53;;;6.90;99.90;;;;;;5077561;28;20121;-78
2022/01/18 05:59:54;;;;;;;100.45;39.80;;;6.90;99.90;;;;;;5074801;28;20036;-78
2022/01/18 06:02:36;;;;;;;100.55;41.97;;;6.90;99.90;;;;;;5060603;28;20044;-79
2022/01/18 06:07:46;;;;;;;123.95;43.22;;;7.00;99.90;;;;;;5078911;28;20381;-79
2022/01/18 06:10:12;;;;;;;113.28;43.85;;;7.00;99.90;;;;;;5083697;28;20028;-79
2022/01/18 06:12:39;;;;;;;121.32;44.67;;;7.00;99.90;;;;;;5085029;28;20028;-78
2022/01/18 06:15:06;;;;;;;130.18;43.03;;;6.90;99.90;;;;;;5081886;28;20040;-79
2022/01/18 06:17:31;;;;;;;108.00;41.47;;;6.90;99.90;;;;;;5076258;28;20043;-79
2022/01/18 06:19:57;;;;;;;108.20;41.42;;;6.90;99.90;;;;;;5073199;28;20044;-79
2022/01/18 06:22:23;;;;;;;107.75;39.35;;;6.80;99.90;;;;;;5053355;28;20058;-79
2022/01/18 06:24:49;;;;;;;87.97;32.58;;;6.90;99.90;;;;;;5045621;28;20028;-79
2022/01/18 06:27:14;;;;;;;107.93;37.50;;;6.90;99.90;;;;;;5095551;28;20137;-79
2022/01/18 06:29:40;;;;;;;96.28;35.55;;;6.90;99.90;;;;;;5079970;28;20726;-79
2022/01/18 06:32:06;;;;;;;75.80;30.20;;;7.00;99.90;;;;;;5077696;28;20091;-80
2022/01/18 06:34:32;;;;;;;82.95;32.13;;;7.00;99.90;;;;;;5060111;28;20029;-80
2022/01/18 06:36:58;;;;;;;111.57;35.97;;;7.00;99.90;;;;;;5071897;28;20081;-80
2022/01/18 06:39:23;;;;;;;91.65;32.88;;;7.00;99.90;;;;;;5075408;28;20025;-80
2022/01/18 06:41:49;;;;;;;118.97;39.33;;;7.00;99.90;;;;;;5062305;28;20423;-81
2022/01/18 06:44:15;;;;;;;118.03;37.50;;;7.00;99.90;;;;;;5093336;28;20560;-80
2022/01/18 06:46:41;;;;;;;105.10;36.42;;;6.90;99.90;;;;;;5053858;28;20039;-80
2022/01/18 06:49:07;;;;;;;104.00;33.65;;;6.90;99.90;;;;;;5068023;28;20056;-80
2022/01/18 06:51:33;;;;;;;114.43;36.08;;;6.80;99.90;;;;;;5072048;28;20323;-80
2022/01/18 06:53:59;;;;;;;94.03;31.23;;;6.80;99.90;;;;;;5080530;28;20032;-80
2022/01/18 06:56:26;;;;;;;104.57;32.50;;;6.70;99.90;;;;;;5060798;28;20481;-80
2022/01/18 06:58:53;;;;;;;94.05;30.67;;;6.80;99.90;;;;;;5073687;28;20039;-80
2022/01/18 07:01:19;;;;;;;104.68;33.75;;;6.80;99.90;;;;;;5073579;28;20016;-80
2022/01/18 07:03:47;;;;;;;97.50;32.97;;;6.70;99.90;;;;;;5075167;28;20032;-80
2022/01/18 07:06:12;;;;;;;110.18;37.20;;;6.70;99.90;;;;;;5072231;28;20420;-80
2022/01/18 07:08:38;;;;;;;102.72;33.20;;;6.70;99.90;;;;;;5088014;28;20081;-80
2022/01/18 07:11:06;;;;;;;89.18;34.25;;;6.70;99.90;;;;;;5078300;28;20054;-80
2022/01/18 07:13:31;;;;;;;112.00;37.03;;;6.70;99.90;;;;;;5094336;28;20028;-80
2022/01/18 07:15:57;;;;;;;99.25;33.13;;;6.70;99.90;;;;;;5090490;28;20021;-79
2022/01/18 07:18:23;;;;;;;112.53;34.67;;;6.70;99.90;;;;;;5057883;28;20524;-80
2022/01/18 07:20:49;;;;;;;90.80;30.60;;;6.70;99.90;;;;;;5076966;28;20052;-80
2022/01/18 07:23:15;;;;;;;94.07;37.00;;;6.80;99.90;;;;;;5058311;28;20033;-80
2022/01/18 07:25:44;;;;;;;98.55;34.25;;;6.80;99.90;;;;;;5058015;28;20396;-79
2022/01/18 07:28:11;;;;;;;79.10;32.38;;;6.80;99.90;;;;;;5074814;28;20021;-80
2022/01/18 07:30:38;;;;;;;106.82;35.90;;;6.90;99.90;;;;;;5075181;28;20450;-80
2022/01/18 07:33:04;;;;;;;97.93;35.78;;;6.80;99.90;;;;;;5075163;28;20032;-80
2022/01/18 07:35:33;;;;;;;95.43;35.38;;;6.80;99.90;;;;;;5070259;28;20464;-80
2022/01/18 07:38:00;;;;;;;80.97;31.52;;;6.90;99.90;;;;;;5079038;28;20059;-80
2022/01/18 07:40:28;;;;;;;94.30;33.58;;;6.80;99.90;;;;;;5095285;28;20031;-80
2022/01/18 07:42:54;;;;;;;89.18;35.35;;;6.80;99.90;;;;;;5081378;28;20032;-80
2022/01/18 07:45:20;;;;;;;108.93;37.65;;;6.80;99.90;;;;;;5074408;28;20084;-80
2022/01/18 07:47:46;;;;;;;111.32;38.20;;;6.80;99.90;;;;;;5079368;28;20058;-80
2022/01/18 07:50:12;;;;;;;114.28;37.42;;;6.80;99.90;;;;;;5075205;28;20155;-78
2022/01/18 07:52:37;;;;;;;87.80;32.75;;;6.80;99.90;;;;;;5080773;28;20024;-79
2022/01/18 07:55:04;;;;;;;102.00;33.42;;;6.80;99.90;;;;;;5069705;28;20056;-79
2022/01/18 07:57:30;;;;;;;108.47;34.50;;;6.70;99.90;;;;;;5073386;28;20077;-79
2022/01/18 07:59:56;;;;;;;89.10;32.25;;;6.70;99.90;;;;;;5072943;28;20055;-79
2022/01/18 08:02:22;;;;;;;87.13;30.50;;;6.70;99.90;;;;;;5083221;28;20389;-79
2022/01/18 08:04:48;;;;;;;116.80;35.20;;;6.80;99.90;;;;;;5051960;28;20032;-79
2022/01/18 08:07:14;;;;;;;111.50;35.22;;;6.80;99.90;;;;;;5072320;28;20032;-79
2022/01/18 08:09:39;;;;;;;112.07;34.72;;;6.80;99.90;;;;;;5088888;28;20028;-79
2022/01/18 08:12:06;;;;;;;110.25;34.53;;;6.70;99.90;;;;;;5084122;28;20028;-79
2022/01/18 08:14:33;;;;;;;100.85;35.00;;;6.80;99.90;;;;;;5080276;28;20073;-79
2022/01/18 08:17:00;;;;;;;122.45;37.20;;;6.70;99.90;;;;;;5099013;28;20082;-77
2022/01/18 08:19:28;;;;;;;94.93;34.20;;;6.70;99.90;;;;;;5058551;28;20098;-77
2022/01/18 08:21:54;;;;;;;103.80;35.33;;;6.80;99.90;;;;;;5057569;28;20044;-77
2022/01/18 08:24:20;;;;;;;108.35;37.08;;;6.80;99.90;;;;;;5070158;28;20408;-77
2022/01/18 08:26:46;;;;;;;93.20;34.05;;;6.90;99.90;;;;;;5054593;28;20032;-77
2022/01/18 08:29:12;;;;;;;103.22;37.53;;;6.90;99.90;;;;;;5076968;28;20094;-77
2022/01/18 08:31:39;;;;;;;98.63;37.63;;;6.90;99.90;;;;;;5072941;28;20035;-78
2022/01/18 08:34:04;;;;;;;98.97;38.70;;;6.90;99.90;;;;;;5073528;28;20040;-77
2022/01/18 08:36:30;;;;;;;98.95;37.97;;;7.00;99.90;;;;;;5085107;28;20032;-80
2022/01/18 08:38:57;;;;;;;105.07;37.97;;;6.90;99.90;;;;;;5073945;28;20403;-80
2022/01/18 08:41:22;;;;;;;99.43;34.75;;;7.00;99.90;;;;;;5090777;28;20038;-80
2022/01/18 08:43:48;;;;;;;102.15;36.80;;;7.00;99.90;;;;;;5067696;28;20025;-80
2022/01/18 08:46:15;;;;;;;99.75;36.50;;;7.00;99.90;;;;;;5059116;28;20032;-79
2022/01/18 08:48:41;;;;;;;107.45;37.13;;;7.00;99.90;;;;;;5067707;28;20073;-80
2022/01/18 08:51:07;;;;;;;101.18;37.65;;;7.10;99.90;;;;;;5083879;28;20025;-79
2022/01/18 08:53:33;;;;;;;114.28;40.45;;;7.00;99.90;;;;;;5088731;28;20054;-80
2022/01/18 08:55:59;;;;;;;101.70;37.53;;;7.00;99.90;;;;;;5106306;28;20082;-81
2022/01/18 08:58:26;;;;;;;117.65;41.63;;;7.00;99.90;;;;;;5072183;28;20068;-80
2022/01/18 09:00:52;;;;;;;122.82;40.53;;;7.00;99.90;;;;;;5077856;28;20395;-82
2022/01/18 09:03:18;;;;;;;100.13;37.22;;;7.10;99.90;;;;;;5065124;28;20440;-81
2022/01/18 09:05:45;;;;;;;115.97;38.70;;;7.10;99.90;;;;;;5060657;28;20082;-80
2022/01/18 09:08:12;;;;;;;99.60;34.67;;;7.10;99.90;;;;;;5068792;28;20111;-79
2022/01/18 09:10:39;;;;;;;103.72;34.90;;;7.20;99.90;;;;;;5066423;28;20111;-80
2022/01/18 09:13:05;;;;;;;97.25;36.22;;;7.20;99.90;;;;;;5049741;28;20041;-80
2022/01/18 09:15:31;;;;;;;93.60;34.40;;;7.20;99.90;;;;;;5068294;28;20048;-82
2022/01/18 09:17:57;;;;;;;103.65;35.38;;;7.30;99.90;;;;;;5054795;28;20032;-79
2022/01/18 09:20:24;;;;;;;107.70;35.00;;;7.40;99.90;;;;;;5090630;28;20052;-80
2022/01/18 09:22:52;;;;;;;96.47;34.83;;;7.40;99.90;;;;;;5077037;28;20123;-80
2022/01/18 09:25:24;;;;;;;98.95;33.88;;;7.40;99.90;;;;;;5077470;28;20032;-81
2022/01/18 09:27:50;;;;;;;123.82;33.95;;;7.40;99.90;;;;;;5093579;28;20027;-80
2022/01/18 09:30:16;;;;;;;107.65;36.13;;;7.50;99.90;;;;;;5075873;28;20492;-80
2022/01/18 09:32:43;;;;;;;88.63;32.95;;;7.50;99.90;;;;;;5057321;28;20033;-80
2022/01/18 09:35:10;;;;;;;102.80;33.50;;;7.60;99.90;;;;;;5074810;28;20042;-80
2022/01/18 09:37:35;;;;;;;87.18;29.10;;;7.70;99.90;;;;;;5056553;28;20423;-79
2022/01/18 09:40:02;;;;;;;104.78;32.97;;;7.80;99.90;;;;;;5097920;28;20073;-79
2022/01/18 09:42:33;;;;;;;85.82;31.65;;;7.90;99.90;;;;;;5093399;28;20012;-79
2022/01/18 09:45:01;;;;;;;76.25;29.50;;;7.90;99.90;;;;;;5092620;28;20481;-79
2022/01/18 09:47:27;;;;;;;82.28;27.23;;;7.90;99.90;;;;;;5088887;28;21859;-78
2022/01/18 09:49:56;;;;;;;94.95;29.02;;;8.00;99.90;;;;;;5050559;28;20033;-79
2022/01/18 09:52:21;;;;;;;97.05;28.48;;;8.10;99.90;;;;;;5052207;28;20069;-79
2022/01/18 09:54:47;;;;;;;81.90;26.77;;;8.00;99.90;;;;;;5068676;28;20053;-79
2022/01/18 09:57:13;;;;;;;87.15;28.95;;;8.00;99.90;;;;;;5051928;28;20025;-79
2022/01/18 09:59:38;;;;;;;97.18;30.42;;;8.00;99.90;;;;;;5053580;28;20041;-79
2022/01/18 10:02:06;;;;;;;83.47;28.45;;;8.10;99.90;;;;;;5051919;28;20041;-79
2022/01/18 10:04:39;;;;;;;84.28;27.67;;;8.10;99.90;;;;;;5051864;28;20401;-79
2022/01/18 10:07:05;;;;;;;87.35;28.75;;;8.10;99.90;;;;;;5068354;28;20028;-79
2022/01/18 10:09:30;;;;;;;89.97;27.83;;;8.10;99.90;;;;;;5068582;28;20044;-79
2022/01/18 10:12:02;;;;;;;90.63;26.92;;;8.10;99.90;;;;;;5054999;28;20033;-78
2022/01/18 10:14:29;;;;;;;86.85;28.95;;;8.10;99.90;;;;;;5072999;28;20059;-79
2022/01/18 10:16:55;;;;;;;74.53;26.85;;;8.10;99.90;;;;;;5071622;28;20028;-79
2022/01/18 10:19:47;;;;;;;78.03;28.15;;;8.10;99.90;;;;;;5071859;28;20404;-79
2022/01/18 10:22:25;;;;;;;82.95;28.65;;;8.10;99.90;;;;;;5073172;28;20432;-79
2022/01/18 10:24:52;;;;;;;74.73;28.13;;;8.20;99.90;;;;;;5071600;28;20048;-83
2022/01/18 10:27:19;;;;;;;74.18;28.10;;;8.30;99.90;;;;;;5069871;28;20789;-83
2022/01/18 10:29:47;;;;;;;85.47;29.15;;;8.40;99.90;;;;;;5049435;28;20037;-83
2022/01/18 10:32:25;;;;;;;71.70;26.60;;;8.40;99.90;;;;;;5051116;28;20028;-82
2022/01/18 10:37:19;;;;;;;70.07;26.52;;;8.50;99.90;;;;;;5049967;28;20044;-80
2022/01/18 10:40:16;;;;;;;72.15;26.75;;;8.50;99.90;;;;;;5066206;28;20028;-79
2022/01/18 10:42:52;;;;;;;60.38;24.58;;;8.50;99.90;;;;;;5045359;28;20106;-80
2022/01/18 10:45:31;;;;;;;64.72;26.55;;;8.50;99.90;;;;;;5050824;28;20059;-80
2022/01/18 10:48:15;;;;;;;;;;;8.60;99.90;;;;;;5051176;28;20491;-79
2022/01/18 10:50:46;;;;;;;63.42;24.00;;;8.60;99.90;;;;;;5074173;28;19956;-79
2022/01/18 10:53:17;;;;;;;71.85;21.92;;;8.60;99.90;;;;;;5070794;28;20499;-79
2022/01/18 10:55:44;;;;;;;69.45;23.02;;;8.70;99.90;;;;;;5069278;28;20036;-79
2022/01/18 10:58:19;;;;;;;67.82;23.33;;;8.70;99.90;;;;;;5052700;28;20401;-80
2022/01/18 11:00:45;;;;;;;60.05;20.70;;;8.70;99.90;;;;;;5060390;28;20016;-80
2022/01/18 11:03:11;;;;;;;66.72;23.35;;;8.80;99.90;;;;;;5049370;28;20028;-77
2022/01/18 11:05:41;;;;;;;65.35;24.85;;;8.90;99.90;;;;;;5049374;28;20029;-76
2022/01/18 11:08:07;;;;;;;;;;;8.90;99.90;;;;;;5050886;28;20033;-76
2022/01/18 11:10:42;;;;;;;67.43;23.67;;;9.00;99.90;;;;;;5055484;28;19984;-76
2022/01/18 11:13:17;;;;;;;61.25;22.25;;;9.00;99.90;;;;;;5070473;28;20020;-76
2022/01/18 11:15:48;;;;;;;59.67;19.48;;;9.00;99.90;;;;;;5069036;28;20021;-76
2022/01/18 11:18:17;;;;;;;67.78;21.92;;;9.00;99.90;;;;;;5056413;28;20028;-76
2022/01/18 11:20:47;;;;;;;57.72;19.33;;;9.00;99.90;;;;;;5060596;28;20045;-77
2022/01/18 11:23:14;;;;;;;59.17;18.60;;;9.00;99.90;;;;;;5069058;28;20032;-77
2022/01/18 11:25:40;;;;;;;59.22;19.10;;;9.00;99.90;;;;;;5068781;28;20519;-78
2022/01/18 11:28:07;;;;;;;50.13;18.52;;;9.00;99.90;;;;;;5052216;28;20064;-77
2022/01/18 11:30:36;;;;;;;59.85;18.98;;;9.00;99.90;;;;;;5072286;28;20054;-77
2022/01/18 11:33:05;;;;;;;62.70;19.10;;;9.00;99.90;;;;;;5069883;28;20352;-77
2022/01/18 11:35:50;;;;;;;69.05;18.70;;;9.00;99.90;;;;;;5068765;28;20035;-77
2022/01/18 11:38:22;;;;;;;58.15;17.00;;;9.10;99.90;;;;;;5075996;28;20504;-77
2022/01/18 11:40:54;;;;;;;64.20;19.25;;;9.20;99.90;;;;;;5081117;28;20033;-77
2022/01/18 11:43:42;;;;;;;52.83;17.33;;;9.20;99.90;;;;;;5080294;28;20070;-77
2022/01/18 11:46:34;;;;;;;49.63;18.25;;;9.20;99.90;;;;;;5089054;28;20031;-77
2022/01/18 11:49:03;;;;;;;54.40;17.05;;;9.30;99.90;;;;;;5068366;28;20036;-78
2022/01/18 11:51:35;;;;;;;64.38;18.48;;;9.30;99.90;;;;;;5067092;28;20031;-78
2022/01/18 11:54:19;;;;;;;45.45;17.35;;;9.30;99.90;;;;;;5078123;28;20033;-76
2022/01/18 11:56:46;;;;;;;59.92;17.90;;;9.30;99.90;;;;;;5076364;28;20111;-76
2022/01/18 11:59:16;;;;;;;49.45;15.57;;;9.30;99.90;;;;;;5068532;28;20028;-76
2022/01/18 12:02:03;;;;;;;50.55;17.38;;;9.30;99.90;;;;;;5053073;28;20037;-76
2022/01/18 12:07:39;;;;;;;52.40;16.85;;;9.40;99.90;;;;;;5047366;28;20484;-76
2022/01/18 12:10:06;;;;;;;45.55;16.00;;;9.50;99.90;;;;;;5064145;28;20067;-76
2022/01/18 12:12:41;;;;;;;54.53;16.48;;;9.50;99.90;;;;;;5068076;28;20068;-76
2022/01/18 12:15:16;;;;;;;49.03;12.15;;;9.50;99.90;;;;;;5068361;28;20504;-76
2022/01/18 12:18:22;;;;;;;39.67;12.00;;;9.40;99.90;;;;;;5068253;28;20172;-76
2022/01/18 12:20:53;;;;;;;50.95;13.57;;;9.40;99.90;;;;;;5068704;28;20043;-76
2022/01/18 12:23:21;;;;;;;55.25;13.93;;;9.50;99.90;;;;;;5069334;28;20021;-76
2022/01/18 12:25:57;;;;;;;53.05;15.77;;;9.40;99.90;;;;;;5067903;28;20032;-76
2022/01/18 12:34:30;;;;;;;50.03;15.20;;;9.50;99.90;;;;;;5069378;28;20385;-76
2022/01/18 12:37:08;;;;;;;46.80;17.33;;;9.60;99.90;;;;;;5067615;28;20110;-76
2022/01/18 12:39:57;;;;;;;47.80;16.38;;;9.60;99.90;;;;;;5067902;28;20028;-76
2022/01/18 12:45:12;;;;;;;50.05;13.73;;;9.60;99.90;;;;;;5069658;28;19904;-76
2022/01/18 12:47:47;;;;;;;40.50;12.95;;;9.60;99.90;;;;;;5068833;28;20405;-77
2022/01/18 12:50:19;;;;;;;44.05;12.68;;;9.60;99.90;;;;;;5069038;28;20040;-76
2022/01/18 12:52:45;;;;;;;46.05;13.02;;;9.70;99.90;;;;;;5069058;28;20052;-76
2022/01/18 12:55:46;;;;;;;37.53;12.25;;;9.70;99.90;;;;;;5052295;28;20473;-76
2022/01/18 12:58:31;;;;;;;33.55;11.00;;;9.80;99.90;;;;;;5018507;28;20385;-76
2022/01/18 13:01:01;;;;;;;39.70;12.70;;;10.00;99.90;;;;;;5073203;28;20453;-76
2022/01/18 13:03:33;;;;;;;34.85;10.15;;;10.10;99.90;;;;;;5072910;28;20451;-76
2022/01/18 13:06:01;;;;;;;35.60;11.23;;;10.30;99.90;;;;;;5071433;28;20055;-76
2022/01/18 13:08:39;;;;;;;41.58;9.77;;;10.20;99.90;;;;;;5072383;28;20063;-76
2022/01/18 13:11:04;;;;;;;32.60;9.65;;;10.20;99.90;;;;;;5072818;28;20382;-76
2022/01/18 13:13:32;;;;;;;28.05;9.45;;;10.10;99.90;;;;;;5054814;28;20450;-76
2022/01/18 13:22:54;;;;;;;33.20;8.75;;;10.10;99.90;;;;;;5072847;28;20024;-76
2022/01/18 13:27:48;;;;;;;40.00;11.57;;;10.20;99.90;;;;;;5072169;28;20396;-83
2022/01/18 13:30:24;;;;;;;38.63;11.82;;;10.20;99.90;;;;;;5070910;28;20047;-83
2022/01/18 13:32:51;;;;;;;31.60;9.90;;;10.20;99.90;;;;;;5071276;28;20025;-83
2022/01/18 13:35:24;;;;;;;31.52;9.55;;;10.10;99.90;;;;;;5071115;28;20141;-82
2022/01/18 13:37:51;;;;;;;32.58;7.82;;;10.00;99.90;;;;;;5070561;28;20031;-83
2022/01/18 13:40:18;;;;;;;33.03;8.25;;;10.00;99.90;;;;;;5070917;28;20419;-83
2022/01/18 13:43:01;;;;;;;27.55;7.85;;;9.90;99.90;;;;;;5054174;28;20025;-83
2022/01/18 13:45:28;;;;;;;27.90;8.75;;;9.90;99.90;;;;;;5072538;28;20020;-83
2022/01/18 13:48:11;;;;;;;32.45;10.40;;;9.90;99.90;;;;;;5069773;28;20052;-83
2022/01/18 13:50:50;;;;;;;26.85;8.60;;;9.90;99.90;;;;;;5054688;28;20024;-83
2022/01/18 13:53:28;;;;;;;26.83;9.07;;;9.90;99.90;;;;;;5054381;28;20024;-83
2022/01/18 13:56:14;;;;;;;27.95;8.13;;;10.00;99.90;;;;;;5072128;28;20024;-83
2022/01/18 13:58:47;;;;;;;28.25;8.50;;;10.00;99.90;;;;;;5070567;28;20366;-83
2022/01/18 14:01:20;;;;;;;22.13;6.72;;;10.00;99.90;;;;;;5071917;28;20032;-82
2022/01/18 14:03:48;;;;;;;25.95;9.43;;;10.00;99.90;;;;;;5070640;28;20032;-83
2022/01/18 14:06:16;;;;;;;29.00;9.27;;;10.00;99.90;;;;;;5071578;28;20031;-83
2022/01/18 14:08:43;;;;;;;24.73;6.40;;;10.00;99.90;;;;;;5049983;28;20037;-83
2022/01/18 14:11:10;;;;;;;26.60;7.38;;;10.00;99.90;;;;;;5070195;28;20024;-83
2022/01/18 14:13:37;;;;;;;27.40;7.10;;;9.90;99.90;;;;;;5071767;28;20040;-83